createdAt,value
2019-01-29T00:01:32.746Z,73.97
2019-01-29T00:04:03.717Z,73.97
2019-01-29T00:06:34.607Z,73.99
2019-01-29T00:09:09.968Z,73.54
2019-01-29T00:11:41.786Z,74.10
2019-01-29T00:14:13.725Z,73.38
2019-01-29T00:16:45.170Z,73.57
2019-01-29T00:19:16.600Z,73.63
2019-01-29T00:21:48.732Z,73.66
2019-01-29T00:24:19.743Z,74.04
2019-01-29T00:26:50.708Z,74.35
2019-01-29T00:29:22.840Z,74.19
2019-01-29T00:31:57.516Z,74.77
2019-01-29T00:34:29.836Z,74.71
2019-01-29T00:37:00.854Z,74.41
2019-01-29T00:39:31.724Z,74.51
2019-01-29T00:42:02.913Z,74.99
2019-01-29T00:44:34.908Z,74.99
2019-01-29T00:47:06.846Z,74.94
2019-01-29T00:49:37.928Z,75.37
2019-01-29T00:52:09.296Z,76.15
2019-01-29T00:54:39.836Z,76.15
2019-01-29T00:57:11.006Z,75.74
2019-01-29T00:59:41.923Z,75.49
2019-01-29T01:02:12.950Z,75.49
2019-01-29T01:04:43.890Z,75.85
2019-01-29T01:07:14.855Z,75.60
2019-01-29T01:09:45.962Z,75.55
2019-01-29T01:12:16.732Z,75.09
2019-01-29T01:14:48.053Z,75.30
2019-01-29T01:17:20.024Z,75.52
2019-01-29T01:19:53.231Z,75.74
2019-01-29T01:22:26.122Z,76.00
2019-01-29T01:24:57.068Z,75.77
2019-01-29T01:27:29.017Z,75.77
2019-01-29T01:30:00.049Z,75.14
2019-01-29T01:32:33.096Z,75.24
2019-01-29T01:35:03.944Z,75.16
2019-01-29T01:37:34.895Z,75.19
2019-01-29T01:40:08.596Z,75.07
2019-01-29T01:42:40.178Z,75.56
2019-01-29T01:45:11.282Z,75.56
2019-01-29T01:47:44.110Z,75.82
2019-01-29T01:50:15.430Z,75.91
2019-01-29T01:52:48.396Z,76.27
2019-01-29T01:55:20.362Z,76.07
2019-01-29T01:57:52.993Z,76.07
2019-01-29T02:00:26.323Z,76.07
2019-01-29T02:02:59.089Z,75.80
2019-01-29T02:05:29.952Z,76.33
2019-01-29T02:08:00.969Z,76.33
2019-01-29T02:10:31.774Z,76.02
2019-01-29T02:13:02.957Z,76.25
2019-01-29T02:15:33.302Z,76.43
2019-01-29T02:18:04.635Z,76.17
2019-01-29T02:20:35.654Z,76.46
2019-01-29T02:23:08.167Z,76.57
2019-01-29T02:25:40.335Z,76.05
2019-01-29T02:28:11.284Z,75.97
2019-01-29T02:30:42.509Z,76.14
2019-01-29T02:33:13.399Z,75.58
2019-01-29T02:35:44.202Z,75.61
2019-01-29T02:38:15.410Z,75.70
2019-01-29T02:40:46.303Z,75.47
2019-01-29T02:43:16.717Z,75.44
2019-01-29T02:45:48.369Z,75.44
2019-01-29T02:48:20.367Z,75.15
2019-01-29T02:50:53.427Z,75.28
2019-01-29T02:53:24.411Z,75.23
2019-01-29T02:55:57.417Z,75.18
2019-01-29T02:58:28.532Z,75.46
2019-01-29T03:01:00.502Z,75.53
2019-01-29T03:03:31.589Z,75.16
2019-01-29T03:06:04.622Z,75.59
2019-01-29T03:08:35.586Z,76.03
2019-01-29T03:11:06.580Z,76.48
2019-01-29T03:13:37.532Z,76.48
2019-01-29T03:16:09.613Z,76.46
2019-01-29T03:18:42.604Z,76.55
2019-01-29T03:21:13.452Z,76.55
2019-01-29T03:23:44.419Z,76.93
2019-01-29T03:26:15.334Z,76.93
2019-01-29T03:28:46.346Z,76.80
2019-01-29T03:31:18.451Z,76.80
2019-01-29T03:33:53.107Z,77.16
2019-01-29T03:36:24.441Z,76.80
2019-01-29T03:38:55.634Z,77.32
2019-01-29T03:41:27.752Z,77.86
2019-01-29T03:44:00.566Z,77.86
2019-01-29T03:46:31.713Z,77.60
2019-01-29T03:49:02.655Z,77.69
2019-01-29T03:51:33.565Z,77.96
2019-01-29T03:54:04.776Z,77.92
2019-01-29T03:56:37.350Z,77.92
2019-01-29T03:59:09.590Z,78.37
2019-01-29T04:01:39.958Z,78.34
2019-01-29T04:04:10.661Z,78.30
2019-01-29T04:06:43.417Z,78.30
2019-01-29T04:09:14.048Z,78.53
2019-01-29T04:11:46.630Z,78.57
2019-01-29T04:14:16.983Z,78.54
2019-01-29T04:16:48.709Z,78.66
2019-01-29T04:19:20.342Z,78.66
2019-01-29T04:21:51.267Z,78.83
2019-01-29T04:24:21.810Z,78.98
2019-01-29T04:26:52.875Z,78.64
2019-01-29T04:29:24.281Z,78.97
2019-01-29T04:31:54.746Z,78.97
2019-01-29T04:34:25.821Z,79.20
2019-01-29T04:36:56.165Z,78.93
2019-01-29T04:39:27.150Z,79.10
2019-01-29T04:42:01.500Z,78.94
2019-01-29T04:44:32.975Z,79.25
2019-01-29T04:47:03.876Z,79.28
2019-01-29T04:49:34.896Z,78.83
2019-01-29T04:52:05.948Z,78.48
2019-01-29T04:54:36.962Z,78.59
2019-01-29T04:57:07.879Z,78.31
2019-01-29T04:59:39.052Z,78.18
2019-01-29T05:02:09.546Z,78.10
2019-01-29T05:04:40.081Z,78.13
2019-01-29T05:07:10.911Z,78.42
2019-01-29T05:09:42.055Z,77.85
2019-01-29T05:12:12.974Z,77.85
2019-01-29T05:14:43.915Z,78.37
2019-01-29T05:17:15.067Z,78.37
2019-01-29T05:19:46.024Z,78.01
2019-01-29T05:22:16.973Z,78.06
2019-01-29T05:24:48.151Z,77.87
2019-01-29T05:27:19.595Z,77.88
2019-01-29T05:29:51.010Z,77.88
2019-01-29T05:32:22.126Z,77.94
2019-01-29T05:34:53.110Z,77.50
2019-01-29T05:37:24.022Z,77.89
2019-01-29T05:39:55.198Z,77.25
2019-01-29T05:42:26.092Z,77.41
2019-01-29T05:44:57.246Z,77.45
2019-01-29T05:47:28.173Z,77.63
2019-01-29T05:49:59.171Z,77.77
2019-01-29T05:52:30.155Z,77.36
2019-01-29T05:55:01.153Z,77.74
2019-01-29T05:57:32.272Z,78.06
2019-01-29T06:00:03.386Z,77.92
2019-01-29T06:02:34.289Z,77.76
2019-01-29T06:05:06.706Z,77.76
2019-01-29T06:07:37.132Z,77.63
2019-01-29T06:10:10.703Z,78.13
2019-01-29T06:12:42.193Z,78.38
2019-01-29T06:15:16.731Z,78.69
2019-01-29T06:17:49.273Z,78.42
2019-01-29T06:20:22.232Z,78.87
2019-01-29T06:22:54.305Z,78.83
2019-01-29T06:25:25.549Z,78.68
2019-01-29T06:27:56.347Z,78.79
2019-01-29T06:30:27.630Z,78.51
2019-01-29T06:32:58.387Z,78.50
2019-01-29T06:35:29.303Z,78.19
2019-01-29T06:38:01.879Z,77.97
2019-01-29T06:40:34.293Z,77.95
2019-01-29T06:43:07.495Z,77.62
2019-01-29T06:45:38.417Z,77.71
2019-01-29T06:48:09.449Z,77.46
2019-01-29T06:50:40.500Z,77.49
2019-01-29T06:53:11.485Z,76.93
2019-01-29T06:55:42.435Z,76.68
2019-01-29T06:58:13.565Z,75.92
2019-01-29T07:00:44.633Z,75.15
2019-01-29T07:03:15.611Z,75.15
2019-01-29T07:05:46.464Z,75.05
2019-01-29T07:08:17.171Z,74.01
2019-01-29T07:10:48.556Z,73.50
2019-01-29T07:13:20.558Z,73.25
2019-01-29T07:16:12.530Z,72.52
2019-01-29T07:18:46.559Z,71.54
2019-01-29T07:21:16.973Z,71.54
2019-01-29T07:23:47.646Z,71.37
2019-01-29T07:26:18.516Z,71.37
2019-01-29T07:28:49.554Z,70.34
2019-01-29T07:31:20.547Z,70.34
2019-01-29T07:33:51.488Z,69.56
2019-01-29T07:36:22.629Z,69.63
2019-01-29T07:38:53.403Z,69.55
2019-01-29T07:41:23.765Z,69.69
2019-01-29T07:43:54.621Z,69.88
2019-01-29T07:46:26.020Z,69.48
2019-01-29T07:48:56.730Z,69.48
2019-01-29T07:51:27.974Z,68.49
2019-01-29T07:53:59.289Z,68.29
2019-01-29T07:56:29.875Z,68.15
2019-01-29T07:59:00.733Z,67.99
2019-01-29T08:01:31.570Z,67.91
2019-01-29T08:04:02.651Z,67.91
2019-01-29T08:06:33.488Z,67.77
2019-01-29T08:09:05.740Z,68.07
2019-01-29T08:11:38.862Z,68.07
2019-01-29T08:14:09.828Z,68.27
2019-01-29T08:16:40.214Z,68.29
2019-01-29T08:19:10.864Z,68.73
2019-01-29T08:21:41.940Z,68.51
2019-01-29T08:24:14.603Z,67.59
2019-01-29T08:26:46.947Z,67.33
2019-01-29T08:29:17.320Z,66.75
2019-01-29T08:31:48.829Z,65.91
2019-01-29T08:34:20.997Z,65.40
2019-01-29T08:36:53.984Z,64.58
2019-01-29T08:39:27.015Z,64.58
2019-01-29T08:41:58.966Z,64.75
2019-01-29T08:44:29.949Z,64.61
2019-01-29T08:47:00.918Z,65.21
2019-01-29T08:49:32.099Z,65.43
2019-01-29T08:52:02.900Z,65.48
2019-01-29T08:54:33.920Z,66.37
2019-01-29T08:57:06.609Z,66.37
2019-01-29T08:59:38.723Z,66.15
2019-01-29T09:02:09.104Z,66.15
2019-01-29T09:04:45.097Z,65.15
2019-01-29T09:07:17.271Z,65.15
2019-01-29T09:09:49.063Z,64.89
2019-01-29T09:12:21.042Z,64.89
2019-01-29T09:14:53.053Z,65.08
2019-01-29T09:17:24.021Z,64.47
2019-01-29T09:19:56.015Z,64.47
2019-01-29T09:22:28.130Z,64.29
2019-01-29T09:25:01.077Z,64.29
2019-01-29T09:27:34.129Z,63.81
2019-01-29T09:30:06.836Z,63.78
2019-01-29T09:32:39.097Z,63.20
2019-01-29T09:35:10.327Z,62.87
2019-01-29T09:37:41.207Z,61.96
2019-01-29T09:40:14.834Z,61.17
2019-01-29T09:42:46.209Z,61.17
2019-01-29T09:45:18.261Z,61.38
2019-01-29T09:47:51.280Z,61.51
2019-01-29T09:50:24.177Z,60.93
2019-01-29T09:52:55.399Z,61.05
2019-01-29T09:55:29.558Z,61.05
2019-01-29T09:58:01.363Z,60.52
2019-01-29T10:00:34.391Z,60.52
2019-01-29T10:03:06.461Z,61.26
2019-01-29T10:05:37.435Z,60.82
2019-01-29T10:08:08.429Z,60.49
2019-01-29T10:10:39.379Z,60.28
2019-01-29T10:13:10.310Z,60.66
2019-01-29T10:15:41.276Z,60.85
2019-01-29T10:18:12.405Z,60.09
2019-01-29T10:20:43.319Z,60.09
2019-01-29T10:23:14.400Z,60.07
2019-01-29T10:25:45.476Z,60.07
2019-01-29T10:28:17.353Z,59.29
2019-01-29T10:30:49.370Z,59.29
2019-01-29T10:33:20.486Z,58.94
2019-01-29T10:35:51.463Z,59.18
2019-01-29T10:38:23.412Z,58.71
2019-01-29T10:40:56.417Z,58.71
2019-01-29T10:43:27.438Z,58.34
2019-01-29T10:45:58.619Z,58.01
2019-01-29T10:48:29.490Z,57.73
2019-01-29T10:51:00.543Z,57.73
2019-01-29T10:53:33.595Z,57.90
2019-01-29T10:56:04.502Z,56.92
2019-01-29T10:58:38.734Z,56.45
2019-01-29T11:01:09.701Z,56.27
2019-01-29T11:03:40.712Z,56.16
2019-01-29T11:06:11.516Z,56.08
2019-01-29T11:08:42.578Z,55.82
2019-01-29T11:11:13.484Z,54.57
2019-01-29T11:13:44.511Z,54.14
2019-01-29T11:16:15.468Z,54.38
2019-01-29T11:18:46.561Z,54.80
2019-01-29T11:21:17.615Z,53.64
2019-01-29T11:23:48.367Z,53.64
2019-01-29T11:26:19.237Z,53.89
2019-01-29T11:28:49.734Z,53.44
2019-01-29T11:31:20.715Z,54.35
2019-01-29T11:33:51.747Z,55.17
2019-01-29T11:36:23.041Z,55.61
2019-01-29T11:38:53.639Z,55.93
2019-01-29T11:41:24.822Z,56.21
2019-01-29T11:43:55.857Z,56.24
2019-01-29T11:46:26.711Z,56.69
2019-01-29T11:49:02.702Z,56.60
2019-01-29T11:51:48.286Z,56.81
2019-01-29T11:54:20.859Z,56.49
2019-01-29T11:56:51.811Z,56.74
2019-01-29T11:59:23.793Z,56.68
2019-01-29T12:01:55.779Z,55.95
2019-01-29T12:04:27.843Z,55.84
2019-01-29T12:07:00.861Z,55.30
2019-01-29T12:09:32.033Z,54.40
2019-01-29T12:12:02.952Z,53.88
2019-01-29T12:14:35.853Z,53.07
2019-01-29T12:17:07.814Z,53.33
2019-01-29T12:19:38.959Z,52.35
2019-01-29T12:22:10.229Z,52.31
2019-01-29T12:24:40.924Z,52.33
2019-01-29T12:27:11.909Z,51.86
2019-01-29T12:29:42.959Z,51.93
2019-01-29T12:32:13.893Z,51.28
2019-01-29T12:34:44.719Z,50.83
2019-01-29T12:37:25.368Z,51.37
2019-01-29T12:39:59.501Z,50.95
2019-01-29T12:42:30.016Z,52.06
2019-01-29T12:45:03.190Z,51.59
2019-01-29T12:47:34.014Z,52.62
2019-01-29T12:50:08.415Z,52.93
2019-01-29T12:52:57.495Z,53.24
2019-01-29T12:55:29.181Z,52.41
2019-01-29T12:58:00.158Z,53.23
2019-01-29T13:00:36.138Z,53.99
2019-01-29T13:03:11.354Z,54.11
2019-01-29T13:05:41.804Z,53.54
2019-01-29T13:08:12.321Z,52.50
2019-01-29T13:10:43.224Z,53.22
2019-01-29T13:13:14.262Z,52.38
2019-01-29T13:15:45.067Z,53.79
2019-01-29T13:18:16.277Z,53.97
2019-01-29T13:20:47.248Z,53.27
2019-01-29T13:23:17.622Z,53.65
2019-01-29T13:25:49.243Z,53.57
2019-01-29T13:28:20.323Z,54.26
2019-01-29T13:30:51.185Z,54.79
2019-01-29T13:33:22.161Z,55.09
2019-01-29T13:35:53.199Z,55.77
2019-01-29T13:38:24.075Z,55.14
2019-01-29T13:40:55.119Z,55.75
2019-01-29T13:43:26.218Z,55.78
2019-01-29T13:45:57.290Z,56.33
2019-01-29T13:48:28.251Z,55.33
2019-01-29T13:51:00.887Z,54.79
2019-01-29T13:53:33.399Z,54.21
2019-01-29T13:56:04.368Z,53.13
2019-01-29T13:58:35.357Z,53.11
2019-01-29T14:01:06.707Z,53.66
2019-01-29T14:03:37.394Z,53.23
2019-01-29T14:06:11.407Z,53.42
2019-01-29T14:08:42.441Z,52.61
2019-01-29T14:11:13.462Z,52.34
2019-01-29T14:13:44.524Z,51.67
2019-01-29T14:16:15.420Z,52.37
2019-01-29T14:18:46.567Z,53.35
2019-01-29T14:21:17.550Z,54.10
2019-01-29T14:23:48.518Z,54.73
2019-01-29T14:26:21.535Z,55.12
2019-01-29T14:28:54.559Z,54.43
2019-01-29T14:31:27.500Z,55.63
2019-01-29T14:34:02.157Z,55.83
2019-01-29T14:36:34.598Z,55.60
2019-01-29T14:39:53.811Z,56.58
2019-01-29T14:42:24.488Z,54.67
2019-01-29T14:44:57.195Z,55.63
2019-01-29T14:47:29.447Z,56.79
2019-01-29T14:50:01.716Z,57.19
2019-01-29T14:52:34.633Z,57.70
2019-01-29T14:55:06.878Z,58.46
2019-01-29T14:57:41.103Z,59.39
2019-01-29T15:00:19.969Z,59.57
2019-01-29T15:02:51.709Z,60.54
2019-01-29T15:05:24.655Z,60.76
2019-01-29T15:07:55.689Z,60.56
2019-01-29T15:10:27.844Z,60.78
2019-01-29T15:12:58.740Z,61.70
2019-01-29T15:15:33.389Z,61.49
2019-01-29T15:18:13.530Z,60.94
2019-01-29T15:20:44.891Z,59.82
2019-01-29T15:23:16.833Z,61.39
2019-01-29T15:25:48.025Z,61.25
2019-01-29T15:28:18.347Z,60.05
2019-01-29T15:30:49.646Z,59.80
2019-01-29T15:33:20.772Z,60.88
2019-01-29T15:35:51.857Z,61.61
2019-01-29T15:38:24.794Z,62.46
2019-01-29T15:40:55.942Z,63.16
2019-01-29T15:43:26.858Z,64.23
2019-01-29T15:45:59.023Z,64.81
2019-01-29T15:48:29.842Z,65.46
2019-01-29T15:51:01.318Z,66.48
2019-01-29T15:53:32.273Z,67.46
2019-01-29T15:56:02.894Z,67.46
2019-01-29T15:58:33.823Z,68.75
2019-01-29T16:01:04.886Z,68.75
2019-01-29T16:03:36.002Z,69.23
2019-01-29T16:06:06.770Z,69.44
2019-01-29T16:08:37.942Z,69.65
2019-01-29T16:11:10.240Z,70.03
2019-01-29T16:13:42.883Z,70.37
2019-01-29T16:16:14.187Z,70.94
2019-01-29T16:18:45.121Z,70.96
2019-01-29T16:21:15.936Z,71.22
2019-01-29T16:23:47.044Z,71.29
2019-01-29T16:26:17.860Z,71.56
2019-01-29T16:28:51.046Z,71.56
2019-01-29T16:31:24.074Z,72.09
2019-01-29T16:33:56.923Z,71.94
2019-01-29T16:36:28.096Z,72.19
2019-01-29T16:39:00.123Z,72.40
2019-01-29T16:41:33.107Z,72.61
2019-01-29T16:44:04.164Z,72.84
2019-01-29T16:46:37.184Z,73.19
2019-01-29T16:49:08.051Z,73.44
2019-01-29T16:51:42.166Z,73.87
2019-01-29T16:54:12.754Z,74.68
2019-01-29T16:56:44.309Z,75.32
2019-01-29T16:59:16.246Z,75.79
2019-01-29T17:01:49.216Z,76.44
2019-01-29T17:04:20.101Z,77.42
2019-01-29T17:06:51.254Z,77.87
2019-01-29T17:09:24.365Z,78.15
2019-01-29T17:11:56.338Z,78.36
2019-01-29T17:14:27.375Z,78.46
2019-01-29T17:16:58.253Z,78.60
2019-01-29T17:19:28.621Z,78.66
2019-01-29T17:22:01.198Z,78.87
2019-01-29T17:24:31.564Z,79.03
2019-01-29T17:27:03.367Z,79.17
2019-01-29T17:29:35.282Z,79.39
2019-01-29T17:32:07.354Z,79.54
2019-01-29T17:34:40.315Z,79.47
2019-01-29T17:37:12.294Z,78.74
2019-01-29T17:39:44.083Z,78.97
2019-01-29T17:42:14.473Z,79.05
2019-01-29T17:44:45.439Z,78.85
2019-01-29T17:47:16.383Z,79.07
2019-01-29T17:49:47.669Z,79.17
2019-01-29T17:52:18.276Z,79.63
2019-01-29T17:54:49.688Z,79.83
2019-01-29T17:57:20.424Z,80.55
2019-01-29T17:59:51.507Z,80.94
2019-01-29T18:02:24.158Z,81.11
2019-01-29T18:04:56.588Z,81.19
2019-01-29T18:07:27.545Z,81.52
2019-01-29T18:09:58.422Z,81.82
2019-01-29T18:12:29.563Z,81.31
2019-01-29T18:15:00.563Z,82.00
2019-01-29T18:17:33.224Z,82.11
2019-01-29T18:20:05.920Z,82.92
2019-01-29T18:22:36.569Z,83.54
2019-01-29T18:25:08.004Z,84.08
2019-01-29T18:27:38.619Z,83.49
2019-01-29T18:30:13.053Z,83.62
2019-01-29T18:32:43.800Z,83.63
2019-01-29T18:35:14.778Z,83.69
2019-01-29T18:37:47.627Z,84.04
2019-01-29T18:40:23.500Z,84.55
2019-01-29T18:42:55.738Z,85.31
2019-01-29T18:45:26.927Z,85.41
2019-01-29T18:47:57.725Z,85.37
2019-01-29T18:50:29.061Z,85.44
2019-01-29T18:52:59.701Z,85.18
2019-01-29T18:55:30.578Z,84.82
2019-01-29T18:58:11.200Z,84.44
2019-01-29T19:00:35.812Z,84.45
2019-01-29T19:03:06.857Z,84.50
2019-01-29T19:05:37.764Z,84.54
2019-01-29T19:08:08.776Z,84.57
2019-01-29T19:10:40.172Z,84.84
2019-01-29T19:13:12.908Z,85.17
2019-01-29T19:15:43.802Z,85.70
2019-01-29T19:18:14.843Z,86.02
2019-01-29T19:20:45.705Z,86.20
2019-01-29T19:23:16.881Z,86.54
2019-01-29T19:25:47.853Z,86.99
2019-01-29T19:28:22.053Z,87.32
2019-01-29T19:30:53.024Z,87.49
2019-01-29T19:33:24.815Z,87.42
2019-01-29T19:35:57.887Z,87.26
2019-01-29T19:38:28.815Z,86.94
2019-01-29T19:40:59.742Z,87.19
2019-01-29T19:43:30.581Z,87.85
2019-01-29T19:46:00.976Z,88.36
2019-01-29T19:48:32.475Z,89.09
2019-01-29T19:51:02.878Z,89.03
2019-01-29T19:53:34.338Z,88.84
2019-01-29T19:56:05.190Z,88.99
2019-01-29T19:58:36.235Z,89.23
2019-01-29T20:01:07.111Z,89.58
2019-01-29T20:03:38.134Z,90.21
2019-01-29T20:06:08.794Z,90.77
2019-01-29T20:08:39.635Z,91.39
2019-01-29T20:11:10.608Z,92.01
2019-01-29T20:13:42.150Z,92.61
2019-01-29T20:16:12.526Z,93.41
2019-01-29T20:18:43.138Z,93.93
2019-01-29T20:21:14.346Z,94.35
2019-01-29T20:23:45.446Z,94.66
2019-01-29T20:26:16.106Z,94.91
2019-01-29T20:28:49.540Z,95.19
2019-01-29T20:31:22.057Z,95.58
2019-01-29T20:33:55.196Z,95.99
2019-01-29T20:36:26.102Z,96.36
2019-01-29T20:38:57.149Z,96.70
2019-01-29T20:41:28.066Z,97.07
2019-01-29T20:43:59.136Z,97.45
2019-01-29T20:46:29.611Z,97.66
2019-01-29T20:49:02.475Z,98.04
2019-01-29T20:51:33.253Z,98.25
2019-01-29T20:54:06.289Z,98.41
2019-01-29T20:56:36.856Z,98.67
2019-01-29T20:59:07.429Z,99.00
2019-01-29T21:01:39.913Z,99.09
2019-01-29T21:04:12.276Z,99.24
2019-01-29T21:06:45.201Z,99.40
2019-01-29T21:09:16.666Z,99.59
2019-01-29T21:11:48.447Z,99.74
2019-01-29T21:14:18.821Z,99.91
2019-01-29T21:16:50.267Z,100.00
2019-01-29T21:19:21.469Z,100.00
2019-01-29T21:21:51.916Z,100.00
2019-01-29T21:24:23.884Z,100.00
2019-01-29T21:26:54.449Z,100.00
2019-01-29T21:29:25.898Z,100.00
2019-01-29T21:31:56.561Z,100.00
2019-01-29T21:34:27.719Z,100.00
2019-01-29T21:36:58.415Z,100.00
2019-01-29T21:39:29.501Z,100.00
2019-01-29T21:42:00.457Z,100.00
2019-01-29T21:44:31.364Z,100.00
2019-01-29T21:47:02.332Z,100.00
2019-01-29T21:49:33.326Z,100.00
2019-01-29T21:52:04.332Z,100.00
2019-01-29T21:54:35.161Z,100.00
2019-01-29T21:57:06.149Z,99.92
2019-01-29T21:59:37.111Z,99.83
2019-01-29T22:02:07.649Z,99.80
2019-01-29T22:04:38.506Z,99.77
2019-01-29T22:07:10.539Z,99.70
2019-01-29T22:09:42.540Z,99.61
2019-01-29T22:12:14.612Z,99.47
2019-01-29T22:14:45.561Z,99.42
2019-01-29T22:17:16.510Z,99.40
2019-01-29T22:19:47.596Z,99.38
2019-01-29T22:22:18.262Z,99.25
2019-01-29T22:24:49.595Z,99.08
2019-01-29T22:27:21.590Z,99.05
2019-01-29T22:29:54.567Z,98.88
2019-01-29T22:32:25.491Z,98.69
2019-01-29T22:34:58.636Z,98.56
2019-01-29T22:37:30.658Z,98.51
2019-01-29T22:40:01.637Z,98.46
2019-01-29T22:42:33.823Z,98.42
2019-01-29T22:45:08.291Z,98.46
2019-01-29T22:47:40.802Z,98.50
2019-01-29T22:50:15.000Z,98.63
2019-01-29T22:52:45.807Z,98.63
2019-01-29T22:55:16.806Z,98.51
2019-01-29T22:57:49.781Z,98.25
2019-01-29T23:00:48.851Z,97.66
2019-01-29T23:03:21.396Z,97.16
2019-01-29T23:06:13.113Z,96.81
2019-01-29T23:08:45.721Z,96.70
2019-01-29T23:11:16.846Z,96.60
2019-01-29T23:13:47.881Z,96.21
2019-01-29T23:16:18.478Z,95.66
2019-01-29T23:18:50.025Z,95.20
2019-01-29T23:21:21.816Z,94.93
2019-01-29T23:23:54.728Z,94.63
2019-01-29T23:26:25.555Z,93.74
2019-01-29T23:28:56.653Z,91.29
2019-01-29T23:31:27.794Z,88.61
2019-01-29T23:33:58.647Z,87.66
2019-01-29T23:36:29.392Z,87.42
2019-01-29T23:38:59.956Z,87.68
2019-01-29T23:41:30.898Z,87.84
2019-01-29T23:44:02.375Z,88.00
2019-01-29T23:46:33.392Z,88.11
2019-01-29T23:49:04.304Z,88.25
2019-01-29T23:51:34.931Z,88.28
2019-01-29T23:54:06.277Z,88.18
2019-01-29T23:56:37.036Z,88.18
2019-01-29T23:59:08.262Z,87.37
